Time;durP1;ratioP1;P1;durP2;ratioP2;P2;SDS_P1;SDS_P2;PMS_P1;PMS_P2;Temp;Humidity;BMP_temperature;BMP_pressure;BME280_temperature;BME280_humidity;BME280_pressure;Samples;Min_cycle;Max_cycle;Signal;HPM_P1;HPM_P2
2023/05/11 00:02:17;;;;;;;28.70;25.40;;;;;;;11.39;100.00;101279.22;4969540;28;20023;-64
2023/05/11 00:04:42;;;;;;;28.83;24.48;;;;;;;11.40;100.00;101269.72;4952565;28;20030;-64
2023/05/11 00:07:07;;;;;;;31.33;23.80;;;;;;;11.39;100.00;101262.75;4988253;28;20359;-64
2023/05/11 00:09:34;;;;;;;28.52;25.42;;;;;;;11.39;100.00;101274.03;4976150;28;20033;-63
2023/05/11 00:12:00;;;;;;;28.65;23.55;;;;;;;11.39;100.00;101262.75;4988627;28;20129;-64
2023/05/11 00:14:25;;;;;;;32.17;24.35;;;;;;;11.38;100.00;101261.00;4988062;28;20380;-64
2023/05/11 00:16:51;;;;;;;27.88;23.67;;;;;;;11.37;100.00;101259.25;4952609;28;20043;-64
2023/05/11 00:19:16;;;;;;;25.65;22.90;;;;;;;11.34;100.00;101260.00;4981886;28;20041;-64
2023/05/11 00:21:41;;;;;;;27.90;23.38;;;;;;;11.33;100.00;101252.19;4976799;28;20434;-64
2023/05/11 00:24:07;;;;;;;28.75;24.40;;;;;;;11.30;100.00;101258.13;4987023;28;20046;-64
2023/05/11 00:26:32;;;;;;;27.13;23.90;;;;;;;11.28;100.00;101255.47;4976798;28;20635;-64
2023/05/11 00:28:58;;;;;;;25.48;22.42;;;;;;;11.27;100.00;101260.63;4985713;28;20057;-64
2023/05/11 00:31:23;;;;;;;27.52;23.63;;;;;;;11.26;100.00;101254.53;4962784;28;20035;-64
2023/05/11 00:33:48;;;;;;;25.95;22.83;;;;;;;11.25;100.00;101255.38;4952623;28;20054;-64
2023/05/11 00:36:14;;;;;;;26.10;23.35;;;;;;;11.24;100.00;101258.78;4988254;28;20045;-63
2023/05/11 00:38:40;;;;;;;25.90;23.15;;;;;;;11.24;100.00;101266.56;4969381;28;20416;-64
2023/05/11 00:41:06;;;;;;;24.38;21.77;;;;;;;11.25;100.00;101272.66;4980680;28;20110;-64
2023/05/11 00:43:32;;;;;;;26.45;22.92;;;;;;;11.26;100.00;101267.50;4980114;28;20053;-64
2023/05/11 00:45:57;;;;;;;27.65;24.77;;;;;;;11.26;100.00;101270.09;4972039;28;20038;-63
2023/05/11 00:48:22;;;;;;;27.30;24.27;;;;;;;11.27;100.00;101273.59;4978272;28;20048;-64
2023/05/11 00:50:48;;;;;;;28.95;24.20;;;;;;;11.26;100.00;101271.84;4974624;28;20035;-64
2023/05/11 00:53:14;;;;;;;29.88;24.77;;;;;;;11.25;100.00;101278.72;4971763;28;20033;-64
2023/05/11 00:55:39;;;;;;;26.95;24.05;;;;;;;11.24;100.00;101279.53;4985705;28;20027;-64
2023/05/11 00:58:05;;;;;;;29.35;25.30;;;;;;;11.25;100.00;101280.44;4975600;28;20110;-64
2023/05/11 01:00:30;;;;;;;30.15;25.88;;;;;;;11.22;100.00;101278.63;4977062;28;20015;-64
2023/05/11 01:02:57;;;;;;;29.92;25.77;;;;;;;11.24;100.00;101284.72;4972406;28;20137;-64
2023/05/11 01:05:29;;;;;;;33.40;27.25;;;;;;;11.25;100.00;101281.31;4975421;28;20113;-64
2023/05/11 01:08:04;;;;;;;35.15;27.50;;;;;;;11.25;100.00;101281.31;4980976;28;20460;-64
2023/05/11 01:10:43;;;;;;;37.40;28.52;;;;;;;11.24;100.00;101276.94;4981491;28;20540;-64
2023/05/11 01:14:10;;;;;;;35.22;28.42;;;;;;;11.24;100.00;101282.13;4987971;28;20034;-64
2023/05/11 01:16:39;;;;;;;35.53;28.75;;;;;;;11.24;100.00;101271.75;4926650;28;20459;-64
2023/05/11 01:19:50;;;;;;;40.72;30.42;;;;;;;11.25;100.00;101276.13;4981130;28;20450;-64
2023/05/11 01:22:51;;;;;;;35.20;28.43;;;;;;;11.23;100.00;101287.25;4987820;28;20659;-64
2023/05/11 01:25:31;;;;;;;37.45;28.38;;;;;;;11.21;100.00;101284.63;4986231;28;20030;-64
2023/05/11 01:28:19;;;;;;;38.13;28.42;;;;;;;11.22;100.00;101285.50;4968626;28;20428;-64
2023/05/11 01:30:50;;;;;;;38.88;29.10;;;;;;;11.21;100.00;101283.72;4986934;28;20034;-64
2023/05/11 01:33:20;;;;;;;38.67;30.17;;;;;;;11.20;100.00;101282.88;4974892;28;20033;-64
2023/05/11 01:35:51;;;;;;;36.90;29.60;;;;;;;11.19;100.00;101278.50;4978781;28;20573;-64
2023/05/11 01:38:19;;;;;;;38.47;31.10;;;;;;;11.17;100.00;101278.44;4986944;28;20276;-64
2023/05/11 01:40:51;;;;;;;38.05;29.95;;;;;;;11.16;100.00;101280.97;4975523;28;20027;-64
2023/05/11 01:43:22;;;;;;;39.13;30.35;;;;;;;11.13;100.00;101286.06;4975142;28;20060;-64
2023/05/11 01:45:49;;;;;;;;;;;;;;;11.13;100.00;101283.47;4986966;28;20041;-64
2023/05/11 01:48:20;;;;;;;42.50;29.25;;;;;;;11.14;100.00;101277.44;4985942;28;19910;-64
2023/05/11 01:50:47;;;;;;;38.58;29.15;;;;;;;11.15;100.00;101279.22;4986992;28;20191;-64
2023/05/11 01:53:14;;;;;;;40.75;29.70;;;;;;;11.16;100.00;101283.56;4987166;28;20146;-64
2023/05/11 01:55:41;;;;;;;38.17;29.23;;;;;;;11.17;100.00;101285.34;4987515;28;20034;-64
2023/05/11 01:58:09;;;;;;;42.42;31.15;;;;;;;11.16;100.00;101281.88;4986885;28;20030;-64
2023/05/11 02:00:35;;;;;;;40.70;31.55;;;;;;;11.16;100.00;101281.88;4986910;28;20033;-64
2023/05/11 02:03:04;;;;;;;41.47;32.05;;;;;;;11.17;100.00;101280.16;4982983;28;20030;-64
2023/05/11 02:05:31;;;;;;;37.22;30.20;;;;;;;11.18;100.00;101284.50;4978946;28;20041;-64
2023/05/11 02:08:00;;;;;;;41.15;32.70;;;;;;;11.19;100.00;101285.41;4979677;28;20613;-64
2023/05/11 02:10:26;;;;;;;38.60;31.13;;;;;;;11.19;100.00;101286.28;4979961;28;20064;-64
2023/05/11 02:12:53;;;;;;;36.78;29.65;;;;;;;11.19;100.00;101285.41;4977170;28;20034;-64
2023/05/11 02:15:21;;;;;;;43.53;32.28;;;;;;;11.17;100.00;101282.75;4984515;28;20483;-64
2023/05/11 02:17:46;;;;;;;40.08;31.88;;;;;;;11.16;100.00;101275.78;4976814;28;20493;-64
2023/05/11 02:20:13;;;;;;;44.78;31.35;;;;;;;11.15;100.00;101276.63;4986840;28;20026;-64
2023/05/11 02:22:40;;;;;;;38.63;31.15;;;;;;;11.14;100.00;101274.84;4969097;28;20065;-64
2023/05/11 02:25:06;;;;;;;37.90;30.60;;;;;;;11.13;100.00;101276.56;4982883;28;20457;-64
2023/05/11 02:27:32;;;;;;;42.17;31.33;;;;;;;11.12;100.00;101279.09;4990840;28;20109;-64
2023/05/11 02:29:58;;;;;;;39.13;30.42;;;;;;;11.12;100.00;101273.91;4988835;28;20054;-64
2023/05/11 02:32:24;;;;;;;39.28;31.25;;;;;;;11.12;100.00;101279.09;4979272;28;20148;-64
2023/05/11 02:34:59;;;;;;;40.00;30.58;;;;;;;11.10;100.00;101281.63;4990126;28;20022;-64
2023/05/11 02:37:26;;;;;;;39.45;29.60;;;;;;;11.09;100.00;101285.06;4989269;28;20025;-64
2023/05/11 02:40:02;;;;;;;40.88;31.25;;;;;;;11.09;100.00;101282.47;4990393;28;20150;-64
2023/05/11 02:42:29;;;;;;;45.17;32.50;;;;;;;11.05;100.00;101284.06;4988997;28;20061;-65
2023/05/11 02:45:02;;;;;;;41.90;31.45;;;;;;;11.05;100.00;101284.06;4988134;28;20022;-64
2023/05/11 02:47:31;;;;;;;36.53;30.83;;;;;;;11.04;100.00;101279.69;4979076;28;20027;-64
2023/05/11 02:50:00;;;;;;;41.95;30.52;;;;;;;11.03;100.00;101285.72;4976168;28;20060;-64
2023/05/11 02:52:26;;;;;;;37.08;30.00;;;;;;;11.02;100.00;101278.78;4977890;28;20034;-64
2023/05/11 02:54:53;;;;;;;38.20;31.38;;;;;;;11.02;100.00;101278.78;4989644;28;20022;-63
2023/05/11 02:57:19;;;;;;;43.50;33.97;;;;;;;11.02;100.00;101278.78;4990305;28;20030;-64
2023/05/11 02:59:45;;;;;;;43.42;32.22;;;;;;;11.04;100.00;101282.28;4976509;28;20088;-64
2023/05/11 03:02:11;;;;;;;43.05;33.25;;;;;;;11.03;100.00;101280.53;4990023;28;20299;-64
2023/05/11 03:04:38;;;;;;;44.70;33.25;;;;;;;11.03;100.00;101279.63;4989795;28;20109;-64
2023/05/11 03:07:04;;;;;;;43.00;33.03;;;;;;;11.00;100.00;101280.41;4989067;28;20062;-64
2023/05/11 03:09:29;;;;;;;42.50;32.28;;;;;;;10.97;100.00;101277.72;4977770;28;20038;-64
2023/05/11 03:11:56;;;;;;;39.03;33.40;;;;;;;10.95;100.00;101286.25;4988869;28;20097;-64
2023/05/11 03:14:22;;;;;;;41.72;33.80;;;;;;;10.92;100.00;101282.72;4970392;28;20380;-64
2023/05/11 03:16:48;;;;;;;44.60;34.15;;;;;;;10.92;100.00;101281.81;4983672;28;20116;-64
2023/05/11 03:19:15;;;;;;;40.38;32.13;;;;;;;10.91;100.00;101285.25;4989704;28;20137;-63
2023/05/11 03:21:41;;;;;;;41.30;31.65;;;;;;;10.89;100.00;101286.91;4977304;28;20105;-63
2023/05/11 03:24:07;;;;;;;40.53;34.10;;;;;;;10.87;100.00;101289.44;4970880;28;20030;-63
2023/05/11 03:26:33;;;;;;;44.35;33.72;;;;;;;10.85;100.00;101290.22;4989212;28;20482;-64
2023/05/11 03:29:00;;;;;;;44.53;33.47;;;;;;;10.83;100.00;101290.13;4988478;28;20034;-64
2023/05/11 03:31:25;;;;;;;48.13;34.72;;;;;;;10.83;100.00;101286.69;4989418;28;20030;-64
2023/05/11 03:33:51;;;;;;;45.72;34.22;;;;;;;10.84;100.00;101288.44;4977146;28;20033;-64
2023/05/11 03:36:17;;;;;;;49.70;36.58;;;;;;;10.83;100.00;101284.94;4989573;28;20455;-64
2023/05/11 03:38:44;;;;;;;53.15;39.22;;;;;;;10.80;100.00;101283.16;4989400;28;20055;-64
2023/05/11 03:41:14;;;;;;;54.30;39.08;;;;;;;10.78;100.00;101282.19;4988656;28;20084;-64
2023/05/11 03:43:39;;;;;;;51.63;38.90;;;;;;;10.78;100.00;101284.78;4989035;28;20025;-63
2023/05/11 03:46:06;;;;;;;59.53;41.13;;;;;;;10.77;100.00;101282.13;4988832;28;20390;-64
2023/05/11 03:48:32;;;;;;;57.08;39.88;;;;;;;10.76;100.00;101281.25;4968538;28;20468;-64
2023/05/11 03:50:57;;;;;;;58.80;41.28;;;;;;;10.74;100.00;101277.72;4981038;28;20037;-65
2023/05/11 03:53:23;;;;;;;55.10;39.05;;;;;;;10.75;100.00;101283.78;4986691;28;20034;-65
2023/05/11 03:55:49;;;;;;;52.95;39.25;;;;;;;10.75;100.00;101283.78;4987130;28;20064;-65
2023/05/11 03:58:15;;;;;;;55.47;39.65;;;;;;;10.75;100.00;101284.69;4987477;28;20395;-65
2023/05/11 04:00:41;;;;;;;59.35;41.42;;;;;;;10.74;100.00;101282.91;4985866;28;20040;-65
2023/05/11 04:03:10;;;;;;;59.10;40.70;;;;;;;10.74;100.00;101290.66;4978882;28;20109;-65
2023/05/11 04:05:35;;;;;;;51.53;37.67;;;;;;;10.73;100.00;101283.72;4981980;28;20529;-65
2023/05/11 04:08:01;;;;;;;53.95;39.90;;;;;;;10.72;100.00;101283.69;4979863;28;20089;-65
2023/05/11 04:10:27;;;;;;;52.05;39.17;;;;;;;10.71;100.00;101276.72;4965961;28;20038;-65
2023/05/11 04:12:52;;;;;;;47.22;37.45;;;;;;;10.69;100.00;101282.72;4988049;28;20038;-65
2023/05/11 04:15:18;;;;;;;54.88;38.28;;;;;;;10.68;100.00;101283.56;4987983;28;20061;-65
2023/05/11 04:17:43;;;;;;;50.97;37.13;;;;;;;10.68;100.00;101286.16;4983957;28;20459;-65
2023/05/11 04:20:08;;;;;;;50.00;37.35;;;;;;;10.65;100.00;101282.56;4970340;28;20042;-65
2023/05/11 04:22:34;;;;;;;51.38;37.80;;;;;;;10.65;100.00;101279.97;4974627;28;20502;-65
2023/05/11 04:24:59;;;;;;;52.50;39.83;;;;;;;10.65;100.00;101279.97;4988429;28;20030;-65
2023/05/11 04:27:24;;;;;;;51.45;38.33;;;;;;;10.65;100.00;101279.97;4987983;28;20124;-65
2023/05/11 04:29:50;;;;;;;45.08;36.92;;;;;;;10.66;100.00;101284.31;4972659;28;20472;-65
2023/05/11 04:32:15;;;;;;;54.25;41.13;;;;;;;10.68;100.00;101293.03;4972524;28;20026;-65
2023/05/11 04:34:40;;;;;;;49.42;37.47;;;;;;;10.67;100.00;101288.66;4982430;28;20031;-65
2023/05/11 04:37:06;;;;;;;52.70;39.38;;;;;;;10.64;100.00;101284.25;4973315;28;20074;-65
2023/05/11 04:39:32;;;;;;;51.80;39.88;;;;;;;10.61;100.00;101289.34;4969038;28;20041;-66
2023/05/11 04:41:58;;;;;;;52.38;37.15;;;;;;;10.59;100.00;101290.09;4974252;28;20873;-65
2023/05/11 04:44:24;;;;;;;52.22;38.28;;;;;;;10.57;100.00;101290.91;4987825;28;20109;-65
2023/05/11 04:46:53;;;;;;;51.78;38.80;;;;;;;10.57;100.00;101296.09;4981356;28;20395;-65
2023/05/11 04:49:18;;;;;;;51.75;37.83;;;;;;;10.56;100.00;101294.31;4981642;28;20030;-65
2023/05/11 04:51:43;;;;;;;50.42;38.55;;;;;;;10.55;100.00;101292.56;4986061;28;20052;-65
2023/05/11 04:54:09;;;;;;;50.58;37.33;;;;;;;10.55;100.00;101302.03;4976518;28;20035;-66
2023/05/11 04:56:39;;;;;;;55.58;39.40;;;;;;;10.53;100.00;101299.38;4967718;28;20382;-65
2023/05/11 04:59:04;;;;;;;55.53;40.03;;;;;;;10.54;100.00;101305.47;4987679;28;20037;-65
2023/05/11 05:01:30;;;;;;;52.90;39.28;;;;;;;10.53;100.00;101304.56;4987184;28;20014;-65
2023/05/11 05:03:55;;;;;;;51.67;37.85;;;;;;;10.52;100.00;101310.56;4987421;28;20356;-65
2023/05/11 05:06:20;;;;;;;59.88;41.25;;;;;;;10.52;100.00;101312.28;4986593;28;20053;-65
2023/05/11 05:08:45;;;;;;;56.67;40.13;;;;;;;10.54;100.00;101314.09;4987507;28;20169;-65
2023/05/11 05:11:11;;;;;;;59.22;42.25;;;;;;;10.55;100.00;101318.47;4978226;28;20030;-64
2023/05/11 05:13:36;;;;;;;61.47;42.75;;;;;;;10.56;100.00;101312.47;4970143;28;20022;-65
2023/05/11 05:16:01;;;;;;;61.55;42.22;;;;;;;10.58;100.00;101317.69;4981414;28;20154;-64
2023/05/11 05:18:27;;;;;;;66.60;44.53;;;;;;;10.63;100.00;101323.09;4983500;28;20053;-65
2023/05/11 05:20:52;;;;;;;68.55;45.50;;;;;;;10.66;100.00;101325.78;4981988;28;20031;-64
2023/05/11 05:23:17;;;;;;;70.72;46.95;;;;;;;10.67;100.00;101322.34;4979313;28;20076;-64
2023/05/11 05:25:42;;;;;;;67.15;44.58;;;;;;;10.71;100.00;101324.25;4987084;28;20034;-64
2023/05/11 05:28:08;;;;;;;69.68;46.40;;;;;;;10.76;100.00;101321.81;4983939;28;20045;-64
2023/05/11 05:30:35;;;;;;;72.50;48.38;;;;;;;10.75;100.00;101331.34;4985665;28;20100;-64
2023/05/11 05:33:00;;;;;;;75.20;47.78;;;;;;;10.79;100.00;101328.03;4987945;28;20455;-64
2023/05/11 05:35:25;;;;;;;72.15;48.00;;;;;;;10.85;100.00;101331.69;4986979;28;20046;-64
2023/05/11 05:37:50;;;;;;;79.05;47.38;;;;;;;10.88;100.00;101337.00;4988128;28;20050;-64
2023/05/11 05:40:16;;;;;;;72.10;47.42;;;;;;;10.92;100.00;101334.56;4987741;28;20022;-65
2023/05/11 05:42:41;;;;;;;78.78;48.05;;;;;;;10.95;100.00;101339.00;4988296;28;20383;-65
2023/05/11 05:45:07;;;;;;;76.25;47.67;;;;;;;11.01;100.00;101343.56;4978981;28;20026;-65
2023/05/11 05:47:32;;;;;;;76.13;48.05;;;;;;;11.04;100.00;101344.53;4971946;28;20026;-66
2023/05/11 05:49:57;;;;;;;71.43;47.13;;;;;;;11.05;100.00;101341.13;4987507;28;20101;-65
2023/05/11 05:52:23;;;;;;;68.50;44.53;;;;;;;11.12;100.00;101339.63;4987333;28;20157;-65
2023/05/11 05:54:48;;;;;;;72.25;45.80;;;;;;;11.15;100.00;101346.66;4977043;28;20014;-65
2023/05/11 05:57:13;;;;;;;66.43;44.33;;;;;;;11.20;100.00;101345.13;4987616;28;20026;-65
2023/05/11 05:59:38;;;;;;;65.60;44.50;;;;;;;11.25;100.00;101351.38;4983438;28;20018;-66
2023/05/11 06:02:05;;;;;;;68.75;43.92;;;;;;;11.27;100.00;101349.72;4975099;28;20042;-66
2023/05/11 06:04:30;;;;;;;65.65;43.25;;;;;;;11.26;100.00;101353.13;4980418;28;20053;-66
2023/05/11 06:06:56;;;;;;;59.05;41.30;;;;;;;11.27;100.00;101357.50;4991312;28;20018;-66
2023/05/11 06:09:22;;;;;;;72.43;46.25;;;;;;;11.31;100.00;101357.59;4991448;28;20359;-66
2023/05/11 06:11:47;;;;;;;65.55;44.50;;;;;;;11.35;100.00;101354.31;4991289;28;20033;-65
2023/05/11 06:14:12;;;;;;;64.85;43.72;;;;;;;11.39;100.00;101356.16;4991701;28;20411;-65
2023/05/11 06:16:37;;;;;;;65.93;43.10;;;;;;;11.43;100.00;101364.94;4990160;28;20435;-65
2023/05/11 06:19:03;;;;;;;74.88;46.65;;;;;;;11.46;100.00;101358.16;4991124;28;20023;-65
2023/05/11 06:21:28;;;;;;;73.72;46.17;;;;;;;11.50;100.00;101361.75;4991499;28;20390;-65
2023/05/11 06:23:53;;;;;;;67.55;46.13;;;;;;;11.54;100.00;101363.66;4987411;28;20106;-65
2023/05/11 06:26:20;;;;;;;86.45;50.70;;;;;;;11.53;100.00;101361.88;4981823;28;20037;-65
2023/05/11 06:28:45;;;;;;;89.32;50.95;;;;;;;11.52;100.00;101363.59;4990778;28;20027;-65
2023/05/11 06:31:11;;;;;;;80.07;50.00;;;;;;;11.55;100.00;101364.53;4990807;28;20033;-65
2023/05/11 06:33:36;;;;;;;80.47;50.80;;;;;;;11.58;100.00;101367.25;4990711;28;20026;-65
2023/05/11 06:36:06;;;;;;;78.28;47.40;;;;;;;11.62;100.00;101363.94;4991412;28;20105;-65
2023/05/11 06:38:31;;;;;;;76.97;49.88;;;;;;;11.64;100.00;101368.34;4982175;28;20019;-65
2023/05/11 06:40:56;;;;;;;74.68;48.03;;;;;;;11.68;100.00;101371.03;4979000;28;20049;-65
2023/05/11 06:43:22;;;;;;;83.85;51.78;;;;;;;11.69;100.00;101373.72;4983155;28;20496;-65
2023/05/11 06:45:47;;;;;;;76.22;49.63;;;;;;;11.70;100.00;101366.78;4978875;28;20482;-65
2023/05/11 06:48:13;;;;;;;76.63;51.28;;;;;;;11.72;100.00;101372.91;4988292;28;20030;-66
2023/05/11 06:50:38;;;;;;;80.35;48.30;;;;;;;11.72;100.00;101375.50;4980523;28;20026;-65
2023/05/11 06:53:04;;;;;;;83.07;51.47;;;;;;;11.70;100.00;101378.06;4982174;28;20439;-65
2023/05/11 06:55:29;;;;;;;85.57;51.00;;;;;;;11.70;100.00;101370.28;4980885;28;20019;-65
2023/05/11 06:57:54;;;;;;;87.32;51.83;;;;;;;11.71;100.00;101378.97;4988330;28;20015;-65
2023/05/11 07:00:20;;;;;;;81.35;51.15;;;;;;;11.71;100.00;101374.63;4986428;28;20087;-65
2023/05/11 07:02:45;;;;;;;82.93;52.17;;;;;;;11.73;100.00;101383.34;4988924;28;20550;-65
2023/05/11 07:05:11;;;;;;;79.70;51.72;;;;;;;11.74;100.00;101377.34;4988109;28;20085;-65
2023/05/11 07:07:37;;;;;;;78.15;49.92;;;;;;;11.72;100.00;101385.91;4990030;28;20428;-65
2023/05/11 07:10:03;;;;;;;84.68;50.78;;;;;;;11.72;100.00;101389.38;4989934;28;20033;-65
2023/05/11 07:12:28;;;;;;;79.35;51.45;;;;;;;11.72;100.00;101386.78;4989129;28;20422;-65
2023/05/11 07:14:53;;;;;;;84.50;53.92;;;;;;;11.71;100.00;101385.00;4972520;28;20052;-66
2023/05/11 07:17:18;;;;;;;80.32;49.63;;;;;;;11.75;100.00;101384.31;4987267;28;20052;-65
2023/05/11 07:19:44;;;;;;;83.05;51.65;;;;;;;11.74;100.00;101390.34;4978842;28;20034;-65
2023/05/11 07:22:09;;;;;;;80.57;53.13;;;;;;;11.76;100.00;101386.06;4978753;28;20018;-65
2023/05/11 07:24:35;;;;;;;80.38;51.70;;;;;;;11.80;100.00;101391.38;4986254;28;20026;-66
2023/05/11 07:27:00;;;;;;;73.93;50.15;;;;;;;11.77;100.00;101387.84;4982769;28;20466;-65
2023/05/11 07:29:26;;;;;;;76.95;51.58;;;;;;;11.82;100.00;101395.78;4977967;28;20059;-65
2023/05/11 07:31:51;;;;;;;79.50;51.03;;;;;;;11.82;100.00;101388.00;4976304;28;20074;-65
2023/05/11 07:34:17;;;;;;;75.80;49.15;;;;;;;11.85;100.00;101397.63;4989090;28;20041;-65
2023/05/11 07:36:42;;;;;;;78.00;50.15;;;;;;;11.88;100.00;101395.13;4986933;28;20069;-65
2023/05/11 07:39:07;;;;;;;69.88;47.97;;;;;;;11.89;100.00;101397.78;4985883;28;20089;-65
2023/05/11 07:41:33;;;;;;;78.88;48.75;;;;;;;11.93;100.00;101396.16;4984820;28;20018;-65
2023/05/11 07:44:01;;;;;;;71.25;47.22;;;;;;;11.97;100.00;101387.66;4976194;28;20026;-65
2023/05/11 07:46:27;;;;;;;69.55;47.63;;;;;;;12.01;100.00;101396.44;4978423;28;20033;-65
2023/05/11 07:48:52;;;;;;;68.95;47.75;;;;;;;12.06;100.00;101397.50;4983190;28;20023;-65
2023/05/11 07:51:17;;;;;;;70.22;48.85;;;;;;;12.11;100.00;101400.25;4976877;28;20524;-65
2023/05/11 07:53:43;;;;;;;83.53;54.63;;;;;;;12.11;100.00;101401.16;4989407;28;20102;-65
2023/05/11 07:56:09;;;;;;;89.22;53.60;;;;;;;12.12;100.00;101389.06;4988884;28;20054;-65
2023/05/11 07:58:34;;;;;;;96.35;55.55;;;;;;;12.14;100.00;101400.41;4984321;28;20022;-65
2023/05/11 08:01:00;;;;;;;89.68;54.35;;;;;;;12.17;100.00;101397.91;4989196;28;20026;-65
2023/05/11 08:03:25;;;;;;;99.82;57.30;;;;;;;12.22;100.00;101398.94;4987793;28;20604;-65
2023/05/11 08:05:50;;;;;;;97.72;56.45;;;;;;;12.23;100.00;101399.81;4989374;28;20131;-65
2023/05/11 08:08:16;;;;;;;85.65;52.97;;;;;;;12.26;100.00;101402.53;4971809;28;20027;-66
2023/05/11 08:10:41;;;;;;;83.55;54.15;;;;;;;12.32;100.00;101404.44;4978026;28;20455;-65
2023/05/11 08:13:07;;;;;;;88.35;53.67;;;;;;;12.36;100.00;101407.19;4986605;28;20030;-66
2023/05/11 08:15:33;;;;;;;92.28;54.83;;;;;;;12.41;100.00;101409.06;4969065;28;20038;-66
2023/05/11 08:17:59;;;;;;;91.25;54.88;;;;;;;12.45;100.00;101413.53;4986731;28;20026;-65
2023/05/11 08:20:24;;;;;;;94.38;54.88;;;;;;;12.42;100.00;101411.72;4986246;28;20970;-66
2023/05/11 08:22:50;;;;;;;94.75;56.00;;;;;;;12.44;100.00;101411.75;4987744;28;20029;-66
2023/05/11 08:25:15;;;;;;;99.55;57.05;;;;;;;12.46;100.00;101413.59;4988935;28;20026;-66
2023/05/11 08:27:40;;;;;;;98.10;56.10;;;;;;;12.49;100.00;101412.78;4988813;28;20022;-66
2023/05/11 08:30:07;;;;;;;94.93;54.80;;;;;;;12.41;100.00;101415.13;4987542;28;20026;-65
2023/05/11 08:32:34;;;;;;;98.15;57.33;;;;;;;12.40;100.00;101407.28;4987780;28;20084;-65
2023/05/11 08:34:59;;;;;;;95.88;55.75;;;;;;;12.44;100.00;101409.16;4987920;28;20049;-65
2023/05/11 08:37:24;;;;;;;101.43;54.97;;;;;;;12.49;100.00;101408.50;4988067;28;20105;-65
2023/05/11 08:39:50;;;;;;;99.72;55.28;;;;;;;12.51;100.00;101416.34;4988072;28;20026;-65
2023/05/11 08:42:16;;;;;;;91.15;54.67;;;;;;;12.52;100.00;101414.63;4978521;28;20038;-65
2023/05/11 08:44:42;;;;;;;94.00;54.88;;;;;;;12.51;100.00;101410.25;4984529;28;20060;-65
2023/05/11 08:47:08;;;;;;;94.93;55.17;;;;;;;12.51;100.00;101403.34;4987764;28;20042;-65
2023/05/11 08:49:34;;;;;;;87.25;52.78;;;;;;;12.59;100.00;101408.81;4970585;28;20054;-65
2023/05/11 08:52:03;;;;;;;96.30;56.03;;;;;;;12.65;100.00;101414.19;4988463;28;20060;-65
2023/05/11 08:54:28;;;;;;;89.95;52.63;;;;;;;12.71;100.00;101411.81;4985264;28;20041;-65
2023/05/11 08:56:54;;;;;;;86.72;54.20;;;;;;;12.80;100.00;101410.31;4986565;28;20018;-65
2023/05/11 08:59:21;;;;;;;89.05;55.92;;;;;;;12.89;100.00;101413.22;4985739;28;20053;-65
2023/05/11 09:01:47;;;;;;;87.55;54.50;;;;;;;12.95;100.00;101413.41;4968608;28;20022;-64
2023/05/11 09:04:13;;;;;;;77.93;51.10;;;;;;;12.99;100.00;101421.31;4974584;28;20512;-64
2023/05/11 09:06:39;;;;;;;79.70;51.72;;;;;;;13.05;100.00;101418.88;4984403;28;20422;-64
2023/05/11 09:09:05;;;;;;;83.88;53.35;;;;;;;13.05;100.00;101413.69;4986255;28;20038;-64
2023/05/11 09:11:30;;;;;;;85.00;52.58;;;;;;;13.12;100.00;101423.44;4987247;28;20053;-64
2023/05/11 09:13:56;;;;;;;88.00;54.10;;;;;;;13.19;100.00;101417.59;4985726;28;20065;-65
2023/05/11 09:16:21;;;;;;;81.38;52.10;;;;;;;13.19;100.00;101422.81;4986374;28;20047;-65
2023/05/11 09:18:51;;;;;;;86.78;52.80;;;;;;;13.18;100.00;101421.06;4986109;28;20038;-65
2023/05/11 09:21:17;;;;;;;74.07;52.20;;;;;;;13.23;100.00;101429.00;4985204;28;20034;-64
2023/05/11 09:23:42;;;;;;;82.00;52.65;;;;;;;13.25;100.00;101424.72;4985814;28;20398;-65
2023/05/11 09:26:24;;;;;;;79.90;51.70;;;;;;;13.30;100.00;101425.72;4986028;28;20018;-64
2023/05/11 09:28:50;;;;;;;;;;;;;;;13.39;100.00;101426.84;4983974;28;20423;-64
2023/05/11 09:31:33;;;;;;;80.72;51.78;;;;;;;13.45;100.00;101430.50;4986692;28;20093;-64
2023/05/11 09:34:15;;;;;;;78.50;51.95;;;;;;;13.44;100.00;101423.53;4982699;28;20065;-64
2023/05/11 09:36:42;;;;;;;80.30;51.67;;;;;;;13.42;100.00;101421.75;4985889;28;20022;-64
2023/05/11 09:39:07;;;;;;;80.07;52.35;;;;;;;13.40;100.00;101421.66;4985409;28;20476;-64
2023/05/11 09:41:33;;;;;;;81.25;53.13;;;;;;;13.40;100.00;101421.66;4984371;28;20037;-64
2023/05/11 09:44:09;;;;;;;89.28;54.85;;;;;;;13.39;100.00;101422.53;4989277;28;20030;-64
2023/05/11 09:46:42;;;;;;;77.20;52.70;;;;;;;13.32;100.00;101434.47;4986327;28;20022;-64
2023/05/11 09:49:08;;;;;;;88.45;53.08;;;;;;;13.31;100.00;101424.88;4983062;28;20112;-64
2023/05/11 09:51:35;;;;;;;86.25;55.03;;;;;;;13.27;100.00;101428.25;4988561;28;20117;-64
2023/05/11 09:54:16;;;;;;;81.90;52.65;;;;;;;13.30;100.00;101430.03;4979134;28;20031;-64
2023/05/11 09:56:57;;;;;;;82.38;52.63;;;;;;;13.34;100.00;101426.72;4989534;28;20113;-64
2023/05/11 09:59:39;;;;;;;80.75;50.60;;;;;;;13.38;100.00;101428.56;4990145;28;20034;-64
2023/05/11 10:02:23;;;;;;;79.18;50.33;;;;;;;13.41;100.00;101432.97;4988565;28;20022;-64
2023/05/11 10:04:50;;;;;;;80.25;51.83;;;;;;;13.48;100.00;101436.63;4988111;28;20030;-63
2023/05/11 10:07:29;;;;;;;77.20;51.38;;;;;;;13.51;100.00;101434.16;4989968;28;20027;-64
2023/05/11 10:09:57;;;;;;;86.00;52.20;;;;;;;13.50;100.00;101430.66;4990495;28;20487;-64
2023/05/11 10:12:24;;;;;;;85.38;52.28;;;;;;;13.41;100.00;101428.66;4988574;28;20030;-64
2023/05/11 10:14:51;;;;;;;81.82;51.17;;;;;;;13.44;100.00;101428.75;4989066;28;20026;-64
2023/05/11 10:17:17;;;;;;;87.65;53.17;;;;;;;13.38;100.00;101432.91;4985587;28;20523;-64
2023/05/11 10:19:44;;;;;;;93.28;56.05;;;;;;;13.43;100.00;101431.31;4983575;28;20034;-64
2023/05/11 10:22:10;;;;;;;91.22;55.38;;;;;;;13.47;100.00;101432.28;4990470;28;20106;-63
2023/05/11 10:24:35;;;;;;;83.80;53.33;;;;;;;13.42;100.00;101434.75;4990608;28;20049;-64
2023/05/11 10:27:02;;;;;;;87.03;52.05;;;;;;;13.44;100.00;101428.75;4989966;28;20037;-64
2023/05/11 10:29:28;;;;;;;84.15;53.35;;;;;;;13.44;100.00;101427.84;4989073;28;20077;-64
2023/05/11 10:31:56;;;;;;;82.25;52.10;;;;;;;13.47;100.00;101437.47;4985117;28;20263;-64
2023/05/11 10:34:22;;;;;;;83.50;51.42;;;;;;;13.55;100.00;101430.81;4979302;28;20346;-64
2023/05/11 10:36:51;;;;;;;76.75;49.85;;;;;;;13.64;100.00;101430.19;4988497;28;20025;-64
2023/05/11 10:39:16;;;;;;;80.90;50.03;;;;;;;13.71;100.00;101436.47;4971688;28;20018;-64
2023/05/11 10:42:23;;;;;;;75.57;51.00;;;;;;;13.79;100.00;101430.66;4988606;28;20026;-65
2023/05/11 10:45:07;;;;;;;71.90;47.85;;;;;;;13.87;100.00;101436.03;4894114;29;20040;-66
2023/05/11 10:47:32;;;;;;;73.32;47.33;;;;;;;13.95;100.00;101431.06;4962801;28;20124;-66
2023/05/11 10:50:10;;;;;;;75.38;49.35;;;;;;;13.92;100.00;101431.84;4980907;28;20058;-65
2023/05/11 10:52:56;;;;;;;78.25;49.42;;;;;;;14.08;100.00;101428.78;4981753;28;20088;-66
2023/05/11 10:55:31;;;;;;;71.53;46.20;;;;;;;14.21;100.00;101423.03;4979530;28;20109;-66
2023/05/11 10:58:07;;;;;;;69.43;46.50;;;;;;;14.34;100.00;101424.25;4989569;28;20025;-66
2023/05/11 11:01:06;;;;;;;68.57;45.97;;;;;;;14.52;100.00;101423.84;4990042;28;20171;-66
2023/05/11 11:03:32;;;;;;;66.25;43.47;;;;;;;14.66;100.00;101425.91;4981928;28;20391;-66
2023/05/11 11:05:57;;;;;;;60.47;42.60;;;;;;;14.73;100.00;101419.97;4986607;28;20030;-66